sensor_id;sensor_type;location;lat;lon;timestamp;P1;durP1;ratioP1;P2;durP2;ratioP2
12433;SDS011;6281;49.038;8.372;2023-10-31T00:01:04;1.73;;;1.20;;
12433;SDS011;6281;49.038;8.372;2023-10-31T00:03:31;1.80;;;1.30;;
12433;SDS011;6281;49.038;8.372;2023-10-31T00:05:58;1.67;;;1.17;;
12433;SDS011;6281;49.038;8.372;2023-10-31T00:08:26;0.70;;;0.70;;
12433;SDS011;6281;49.038;8.372;2023-10-31T00:10:53;1.03;;;0.80;;
12433;SDS011;6281;49.038;8.372;2023-10-31T00:13:20;0.73;;;0.70;;
12433;SDS011;6281;49.038;8.372;2023-10-31T00:15:47;3.27;;;0.80;;
12433;SDS011;6281;49.038;8.372;2023-10-31T00:18:14;1.90;;;0.83;;
12433;SDS011;6281;49.038;8.372;2023-10-31T00:20:41;1.60;;;0.70;;
12433;SDS011;6281;49.038;8.372;2023-10-31T00:23:08;1.00;;;0.70;;
12433;SDS011;6281;49.038;8.372;2023-10-31T00:25:36;1.10;;;0.53;;
12433;SDS011;6281;49.038;8.372;2023-10-31T00:28:03;1.17;;;0.50;;
12433;SDS011;6281;49.038;8.372;2023-10-31T00:30:30;0.70;;;0.53;;
12433;SDS011;6281;49.038;8.372;2023-10-31T00:32:57;0.70;;;0.57;;
12433;SDS011;6281;49.038;8.372;2023-10-31T00:35:24;1.37;;;0.43;;
12433;SDS011;6281;49.038;8.372;2023-10-31T00:37:51;0.97;;;0.60;;
12433;SDS011;6281;49.038;8.372;2023-10-31T00:40:18;1.10;;;0.70;;
12433;SDS011;6281;49.038;8.372;2023-10-31T00:42:46;2.23;;;0.43;;
12433;SDS011;6281;49.038;8.372;2023-10-31T00:45:13;1.70;;;0.50;;
12433;SDS011;6281;49.038;8.372;2023-10-31T00:47:40;0.50;;;0.50;;
12433;SDS011;6281;49.038;8.372;2023-10-31T00:50:07;0.87;;;0.50;;
12433;SDS011;6281;49.038;8.372;2023-10-31T00:52:35;2.20;;;0.70;;
12433;SDS011;6281;49.038;8.372;2023-10-31T00:55:02;0.70;;;0.40;;
12433;SDS011;6281;49.038;8.372;2023-10-31T00:57:30;1.57;;;0.50;;
12433;SDS011;6281;49.038;8.372;2023-10-31T00:59:58;0.40;;;0.40;;
12433;SDS011;6281;49.038;8.372;2023-10-31T01:02:25;2.43;;;0.70;;
12433;SDS011;6281;49.038;8.372;2023-10-31T01:04:52;0.40;;;0.40;;
12433;SDS011;6281;49.038;8.372;2023-10-31T01:07:19;0.83;;;0.43;;
12433;SDS011;6281;49.038;8.372;2023-10-31T01:09:45;0.40;;;0.30;;
12433;SDS011;6281;49.038;8.372;2023-10-31T01:12:12;1.80;;;0.33;;
12433;SDS011;6281;49.038;8.372;2023-10-31T01:14:39;1.40;;;0.40;;
12433;SDS011;6281;49.038;8.372;2023-10-31T01:17:08;3.10;;;0.37;;
12433;SDS011;6281;49.038;8.372;2023-10-31T01:19:35;1.03;;;0.37;;
12433;SDS011;6281;49.038;8.372;2023-10-31T01:22:01;1.17;;;0.60;;
12433;SDS011;6281;49.038;8.372;2023-10-31T01:24:28;3.43;;;0.40;;
12433;SDS011;6281;49.038;8.372;2023-10-31T01:26:55;0.30;;;0.30;;
12433;SDS011;6281;49.038;8.372;2023-10-31T01:29:22;0.60;;;0.40;;
12433;SDS011;6281;49.038;8.372;2023-10-31T01:31:49;0.60;;;0.40;;
12433;SDS011;6281;49.038;8.372;2023-10-31T01:34:17;3.73;;;0.60;;
12433;SDS011;6281;49.038;8.372;2023-10-31T01:36:44;5.63;;;0.77;;
12433;SDS011;6281;49.038;8.372;2023-10-31T01:39:11;0.70;;;0.40;;
12433;SDS011;6281;49.038;8.372;2023-10-31T01:41:40;6.03;;;0.63;;
12433;SDS011;6281;49.038;8.372;2023-10-31T01:44:07;0.73;;;0.50;;
12433;SDS011;6281;49.038;8.372;2023-10-31T01:46:34;1.73;;;0.43;;
12433;SDS011;6281;49.038;8.372;2023-10-31T01:49:01;3.33;;;0.43;;
12433;SDS011;6281;49.038;8.372;2023-10-31T01:51:30;0.97;;;0.40;;
12433;SDS011;6281;49.038;8.372;2023-10-31T01:53:57;3.03;;;0.40;;
12433;SDS011;6281;49.038;8.372;2023-10-31T01:56:24;2.63;;;0.50;;
12433;SDS011;6281;49.038;8.372;2023-10-31T01:58:51;0.90;;;0.60;;
12433;SDS011;6281;49.038;8.372;2023-10-31T02:01:19;0.63;;;0.30;;
12433;SDS011;6281;49.038;8.372;2023-10-31T02:03:47;3.03;;;0.40;;
12433;SDS011;6281;49.038;8.372;2023-10-31T02:06:14;0.93;;;0.50;;
12433;SDS011;6281;49.038;8.372;2023-10-31T02:08:42;0.60;;;0.40;;
12433;SDS011;6281;49.038;8.372;2023-10-31T02:11:08;0.83;;;0.40;;
12433;SDS011;6281;49.038;8.372;2023-10-31T02:13:36;1.13;;;0.30;;
12433;SDS011;6281;49.038;8.372;2023-10-31T02:16:03;0.80;;;0.40;;
12433;SDS011;6281;49.038;8.372;2023-10-31T02:18:30;2.40;;;0.50;;
12433;SDS011;6281;49.038;8.372;2023-10-31T02:20:57;1.80;;;0.50;;
12433;SDS011;6281;49.038;8.372;2023-10-31T02:23:30;3.20;;;0.50;;
12433;SDS011;6281;49.038;8.372;2023-10-31T02:25:56;2.33;;;0.50;;
12433;SDS011;6281;49.038;8.372;2023-10-31T02:28:23;0.40;;;0.40;;
12433;SDS011;6281;49.038;8.372;2023-10-31T02:30:52;1.10;;;0.30;;
12433;SDS011;6281;49.038;8.372;2023-10-31T02:33:19;7.40;;;0.50;;
12433;SDS011;6281;49.038;8.372;2023-10-31T02:35:46;0.40;;;0.40;;
12433;SDS011;6281;49.038;8.372;2023-10-31T02:38:13;2.93;;;0.50;;
12433;SDS011;6281;49.038;8.372;2023-10-31T02:40:41;0.60;;;0.50;;
12433;SDS011;6281;49.038;8.372;2023-10-31T02:43:08;0.80;;;0.40;;
12433;SDS011;6281;49.038;8.372;2023-10-31T02:45:35;0.60;;;0.40;;
12433;SDS011;6281;49.038;8.372;2023-10-31T02:48:02;0.63;;;0.37;;
12433;SDS011;6281;49.038;8.372;2023-10-31T02:50:29;1.87;;;0.60;;
12433;SDS011;6281;49.038;8.372;2023-10-31T02:52:56;0.40;;;0.37;;
12433;SDS011;6281;49.038;8.372;2023-10-31T02:55:23;0.70;;;0.50;;
12433;SDS011;6281;49.038;8.372;2023-10-31T02:57:52;1.93;;;0.40;;
12433;SDS011;6281;49.038;8.372;2023-10-31T03:00:19;0.57;;;0.50;;
12433;SDS011;6281;49.038;8.372;2023-10-31T03:02:46;2.33;;;0.70;;
12433;SDS011;6281;49.038;8.372;2023-10-31T03:05:12;0.50;;;0.30;;
12433;SDS011;6281;49.038;8.372;2023-10-31T03:07:39;0.40;;;0.40;;
12433;SDS011;6281;49.038;8.372;2023-10-31T03:10:06;0.60;;;0.40;;
12433;SDS011;6281;49.038;8.372;2023-10-31T03:12:34;3.53;;;0.40;;
12433;SDS011;6281;49.038;8.372;2023-10-31T03:15:02;0.83;;;0.40;;
12433;SDS011;6281;49.038;8.372;2023-10-31T03:17:30;1.17;;;0.50;;
12433;SDS011;6281;49.038;8.372;2023-10-31T03:19:56;0.47;;;0.43;;
12433;SDS011;6281;49.038;8.372;2023-10-31T03:22:23;0.67;;;0.37;;
12433;SDS011;6281;49.038;8.372;2023-10-31T03:24:50;0.67;;;0.50;;
12433;SDS011;6281;49.038;8.372;2023-10-31T03:27:17;0.40;;;0.40;;
12433;SDS011;6281;49.038;8.372;2023-10-31T03:29:44;0.70;;;0.60;;
12433;SDS011;6281;49.038;8.372;2023-10-31T03:32:12;4.37;;;0.63;;
12433;SDS011;6281;49.038;8.372;2023-10-31T03:34:40;0.90;;;0.60;;
12433;SDS011;6281;49.038;8.372;2023-10-31T03:37:07;2.13;;;0.37;;
12433;SDS011;6281;49.038;8.372;2023-10-31T03:39:34;2.17;;;0.77;;
12433;SDS011;6281;49.038;8.372;2023-10-31T03:42:01;1.37;;;0.50;;
12433;SDS011;6281;49.038;8.372;2023-10-31T03:44:28;0.43;;;0.33;;
12433;SDS011;6281;49.038;8.372;2023-10-31T03:46:54;4.03;;;0.63;;
12433;SDS011;6281;49.038;8.372;2023-10-31T03:49:23;1.93;;;1.13;;
12433;SDS011;6281;49.038;8.372;2023-10-31T03:51:50;1.27;;;1.00;;
12433;SDS011;6281;49.038;8.372;2023-10-31T03:54:16;1.73;;;1.10;;
12433;SDS011;6281;49.038;8.372;2023-10-31T03:56:43;5.27;;;1.57;;
12433;SDS011;6281;49.038;8.372;2023-10-31T03:59:10;5.03;;;1.17;;
12433;SDS011;6281;49.038;8.372;2023-10-31T04:01:37;1.50;;;0.80;;
12433;SDS011;6281;49.038;8.372;2023-10-31T04:04:04;6.67;;;1.40;;
12433;SDS011;6281;49.038;8.372;2023-10-31T04:06:33;3.77;;;1.10;;
12433;SDS011;6281;49.038;8.372;2023-10-31T04:09:00;0.70;;;0.53;;
12433;SDS011;6281;49.038;8.372;2023-10-31T04:11:27;1.40;;;1.03;;
12433;SDS011;6281;49.038;8.372;2023-10-31T04:13:54;3.33;;;0.97;;
12433;SDS011;6281;49.038;8.372;2023-10-31T04:16:20;2.60;;;0.50;;
12433;SDS011;6281;49.038;8.372;2023-10-31T04:18:48;1.83;;;0.43;;
12433;SDS011;6281;49.038;8.372;2023-10-31T04:21:15;0.50;;;0.30;;
12433;SDS011;6281;49.038;8.372;2023-10-31T04:23:43;2.57;;;0.70;;
12433;SDS011;6281;49.038;8.372;2023-10-31T04:26:10;0.57;;;0.40;;
12433;SDS011;6281;49.038;8.372;2023-10-31T04:28:37;1.87;;;0.50;;
12433;SDS011;6281;49.038;8.372;2023-10-31T04:31:05;3.83;;;0.93;;
12433;SDS011;6281;49.038;8.372;2023-10-31T04:33:31;5.07;;;1.00;;
12433;SDS011;6281;49.038;8.372;2023-10-31T04:35:58;2.83;;;1.27;;
12433;SDS011;6281;49.038;8.372;2023-10-31T04:38:26;0.70;;;0.53;;
12433;SDS011;6281;49.038;8.372;2023-10-31T04:40:54;1.00;;;0.40;;
12433;SDS011;6281;49.038;8.372;2023-10-31T04:43:21;5.10;;;0.60;;
12433;SDS011;6281;49.038;8.372;2023-10-31T04:45:48;6.90;;;1.17;;
12433;SDS011;6281;49.038;8.372;2023-10-31T04:48:15;8.07;;;1.00;;
12433;SDS011;6281;49.038;8.372;2023-10-31T04:50:42;3.80;;;1.10;;
12433;SDS011;6281;49.038;8.372;2023-10-31T04:53:08;3.17;;;0.50;;
12433;SDS011;6281;49.038;8.372;2023-10-31T04:55:35;2.97;;;0.80;;
12433;SDS011;6281;49.038;8.372;2023-10-31T04:58:04;1.63;;;0.70;;
12433;SDS011;6281;49.038;8.372;2023-10-31T05:00:31;1.53;;;0.53;;
12433;SDS011;6281;49.038;8.372;2023-10-31T05:02:58;1.30;;;0.70;;
12433;SDS011;6281;49.038;8.372;2023-10-31T05:05:26;1.47;;;0.53;;
12433;SDS011;6281;49.038;8.372;2023-10-31T05:07:53;0.87;;;0.60;;
12433;SDS011;6281;49.038;8.372;2023-10-31T05:10:20;3.60;;;0.50;;
12433;SDS011;6281;49.038;8.372;2023-10-31T05:12:48;2.33;;;0.90;;
12433;SDS011;6281;49.038;8.372;2023-10-31T05:15:17;2.90;;;0.90;;
12433;SDS011;6281;49.038;8.372;2023-10-31T05:17:43;2.93;;;0.80;;
12433;SDS011;6281;49.038;8.372;2023-10-31T05:20:11;2.13;;;0.70;;
12433;SDS011;6281;49.038;8.372;2023-10-31T05:22:38;3.27;;;0.87;;
12433;SDS011;6281;49.038;8.372;2023-10-31T05:25:07;2.93;;;1.00;;
12433;SDS011;6281;49.038;8.372;2023-10-31T05:27:34;4.47;;;1.10;;
12433;SDS011;6281;49.038;8.372;2023-10-31T05:30:01;3.00;;;0.87;;
12433;SDS011;6281;49.038;8.372;2023-10-31T05:32:30;1.80;;;1.13;;
12433;SDS011;6281;49.038;8.372;2023-10-31T05:34:57;2.30;;;1.20;;
12433;SDS011;6281;49.038;8.372;2023-10-31T05:37:24;4.10;;;0.80;;
12433;SDS011;6281;49.038;8.372;2023-10-31T05:39:51;1.23;;;0.77;;
12433;SDS011;6281;49.038;8.372;2023-10-31T05:42:18;1.87;;;0.90;;
12433;SDS011;6281;49.038;8.372;2023-10-31T05:44:45;2.97;;;0.70;;
12433;SDS011;6281;49.038;8.372;2023-10-31T05:47:13;1.87;;;0.80;;
12433;SDS011;6281;49.038;8.372;2023-10-31T05:49:43;6.30;;;1.03;;
12433;SDS011;6281;49.038;8.372;2023-10-31T05:52:10;2.13;;;1.00;;
12433;SDS011;6281;49.038;8.372;2023-10-31T05:54:37;1.20;;;0.60;;
12433;SDS011;6281;49.038;8.372;2023-10-31T05:57:04;1.70;;;1.07;;
12433;SDS011;6281;49.038;8.372;2023-10-31T05:59:30;3.60;;;0.90;;
12433;SDS011;6281;49.038;8.372;2023-10-31T06:01:58;4.23;;;0.90;;
12433;SDS011;6281;49.038;8.372;2023-10-31T06:04:25;1.83;;;0.60;;
12433;SDS011;6281;49.038;8.372;2023-10-31T06:06:53;1.67;;;0.60;;
12433;SDS011;6281;49.038;8.372;2023-10-31T06:09:19;2.90;;;0.83;;
12433;SDS011;6281;49.038;8.372;2023-10-31T06:11:46;3.60;;;1.03;;
12433;SDS011;6281;49.038;8.372;2023-10-31T06:14:13;2.83;;;0.83;;
12433;SDS011;6281;49.038;8.372;2023-10-31T06:16:40;2.50;;;0.87;;
12433;SDS011;6281;49.038;8.372;2023-10-31T06:19:07;1.77;;;1.00;;
12433;SDS011;6281;49.038;8.372;2023-10-31T06:21:34;2.13;;;0.97;;
12433;SDS011;6281;49.038;8.372;2023-10-31T06:24:02;3.50;;;0.80;;
12433;SDS011;6281;49.038;8.372;2023-10-31T06:26:29;3.10;;;0.60;;
12433;SDS011;6281;49.038;8.372;2023-10-31T06:28:57;10.67;;;1.23;;
12433;SDS011;6281;49.038;8.372;2023-10-31T06:31:24;3.60;;;1.13;;
12433;SDS011;6281;49.038;8.372;2023-10-31T06:33:50;6.10;;;1.20;;
12433;SDS011;6281;49.038;8.372;2023-10-31T06:36:17;1.37;;;0.50;;
12433;SDS011;6281;49.038;8.372;2023-10-31T06:38:44;1.50;;;0.50;;
12433;SDS011;6281;49.038;8.372;2023-10-31T06:41:15;2.30;;;0.67;;
12433;SDS011;6281;49.038;8.372;2023-10-31T06:43:42;2.77;;;0.70;;
12433;SDS011;6281;49.038;8.372;2023-10-31T06:46:09;1.57;;;0.60;;
12433;SDS011;6281;49.038;8.372;2023-10-31T06:48:36;2.53;;;0.93;;
12433;SDS011;6281;49.038;8.372;2023-10-31T06:51:03;1.53;;;0.97;;
12433;SDS011;6281;49.038;8.372;2023-10-31T06:53:30;3.37;;;0.57;;
12433;SDS011;6281;49.038;8.372;2023-10-31T06:55:57;0.70;;;0.60;;
12433;SDS011;6281;49.038;8.372;2023-10-31T06:58:25;2.67;;;0.80;;
12433;SDS011;6281;49.038;8.372;2023-10-31T07:00:52;1.10;;;0.60;;
12433;SDS011;6281;49.038;8.372;2023-10-31T07:03:19;1.80;;;0.60;;
12433;SDS011;6281;49.038;8.372;2023-10-31T07:05:46;2.67;;;0.77;;
12433;SDS011;6281;49.038;8.372;2023-10-31T07:08:13;1.87;;;0.80;;
12433;SDS011;6281;49.038;8.372;2023-10-31T07:10:40;1.00;;;0.70;;
12433;SDS011;6281;49.038;8.372;2023-10-31T07:13:07;1.27;;;0.80;;
12433;SDS011;6281;49.038;8.372;2023-10-31T07:15:35;0.77;;;0.77;;
12433;SDS011;6281;49.038;8.372;2023-10-31T07:18:04;1.53;;;0.80;;
12433;SDS011;6281;49.038;8.372;2023-10-31T07:20:32;3.73;;;1.37;;
12433;SDS011;6281;49.038;8.372;2023-10-31T07:22:59;4.83;;;1.07;;
12433;SDS011;6281;49.038;8.372;2023-10-31T07:25:25;4.60;;;1.33;;
12433;SDS011;6281;49.038;8.372;2023-10-31T07:27:53;5.30;;;1.23;;
12433;SDS011;6281;49.038;8.372;2023-10-31T07:30:20;3.03;;;1.47;;
12433;SDS011;6281;49.038;8.372;2023-10-31T07:32:48;5.30;;;1.23;;
12433;SDS011;6281;49.038;8.372;2023-10-31T07:35:15;2.13;;;1.30;;
12433;SDS011;6281;49.038;8.372;2023-10-31T07:37:41;9.87;;;3.77;;
12433;SDS011;6281;49.038;8.372;2023-10-31T07:40:09;2.53;;;1.20;;
12433;SDS011;6281;49.038;8.372;2023-10-31T07:42:36;6.17;;;1.20;;
12433;SDS011;6281;49.038;8.372;2023-10-31T07:45:03;5.33;;;1.30;;
12433;SDS011;6281;49.038;8.372;2023-10-31T07:47:31;3.63;;;1.17;;
12433;SDS011;6281;49.038;8.372;2023-10-31T07:49:59;6.50;;;1.50;;
12433;SDS011;6281;49.038;8.372;2023-10-31T07:52:26;4.83;;;1.40;;
12433;SDS011;6281;49.038;8.372;2023-10-31T07:54:52;2.03;;;1.30;;
12433;SDS011;6281;49.038;8.372;2023-10-31T07:57:19;5.03;;;1.80;;
12433;SDS011;6281;49.038;8.372;2023-10-31T07:59:46;4.33;;;1.17;;
12433;SDS011;6281;49.038;8.372;2023-10-31T08:02:13;2.47;;;1.30;;
12433;SDS011;6281;49.038;8.372;2023-10-31T08:04:39;3.03;;;1.40;;
12433;SDS011;6281;49.038;8.372;2023-10-31T08:07:09;7.20;;;1.40;;
12433;SDS011;6281;49.038;8.372;2023-10-31T08:09:36;1.30;;;0.70;;
12433;SDS011;6281;49.038;8.372;2023-10-31T08:12:03;5.17;;;1.37;;
12433;SDS011;6281;49.038;8.372;2023-10-31T08:14:30;5.90;;;1.23;;
12433;SDS011;6281;49.038;8.372;2023-10-31T08:16:56;3.57;;;1.30;;
12433;SDS011;6281;49.038;8.372;2023-10-31T08:19:23;3.73;;;1.07;;
12433;SDS011;6281;49.038;8.372;2023-10-31T08:21:50;2.33;;;0.73;;
12433;SDS011;6281;49.038;8.372;2023-10-31T08:24:20;5.10;;;1.10;;
12433;SDS011;6281;49.038;8.372;2023-10-31T08:26:46;3.30;;;1.00;;
12433;SDS011;6281;49.038;8.372;2023-10-31T08:29:13;2.17;;;0.93;;
12433;SDS011;6281;49.038;8.372;2023-10-31T08:31:40;5.17;;;0.93;;
12433;SDS011;6281;49.038;8.372;2023-10-31T08:34:06;2.60;;;0.87;;
12433;SDS011;6281;49.038;8.372;2023-10-31T08:36:33;1.23;;;0.53;;
12433;SDS011;6281;49.038;8.372;2023-10-31T08:39:00;0.93;;;0.60;;
12433;SDS011;6281;49.038;8.372;2023-10-31T08:41:30;1.50;;;0.90;;
12433;SDS011;6281;49.038;8.372;2023-10-31T08:43:56;4.27;;;1.20;;
12433;SDS011;6281;49.038;8.372;2023-10-31T08:46:24;2.40;;;1.20;;
12433;SDS011;6281;49.038;8.372;2023-10-31T08:48:51;2.73;;;0.80;;
12433;SDS011;6281;49.038;8.372;2023-10-31T08:51:18;2.10;;;1.00;;
12433;SDS011;6281;49.038;8.372;2023-10-31T08:53:45;3.93;;;0.87;;
12433;SDS011;6281;49.038;8.372;2023-10-31T08:56:12;4.70;;;0.90;;
12433;SDS011;6281;49.038;8.372;2023-10-31T08:58:40;1.73;;;0.97;;
12433;SDS011;6281;49.038;8.372;2023-10-31T09:01:07;5.30;;;1.00;;
12433;SDS011;6281;49.038;8.372;2023-10-31T09:03:34;1.80;;;0.80;;
12433;SDS011;6281;49.038;8.372;2023-10-31T09:06:02;2.63;;;1.10;;
12433;SDS011;6281;49.038;8.372;2023-10-31T09:08:30;4.97;;;1.13;;
12433;SDS011;6281;49.038;8.372;2023-10-31T09:10:59;3.77;;;0.87;;
12433;SDS011;6281;49.038;8.372;2023-10-31T09:13:27;3.63;;;1.43;;
12433;SDS011;6281;49.038;8.372;2023-10-31T09:15:55;2.60;;;1.20;;
12433;SDS011;6281;49.038;8.372;2023-10-31T09:18:23;3.40;;;1.23;;
12433;SDS011;6281;49.038;8.372;2023-10-31T09:20:50;1.53;;;0.80;;
12433;SDS011;6281;49.038;8.372;2023-10-31T09:23:17;2.20;;;0.97;;
12433;SDS011;6281;49.038;8.372;2023-10-31T09:25:45;3.57;;;1.00;;
12433;SDS011;6281;49.038;8.372;2023-10-31T09:28:12;2.27;;;0.80;;
12433;SDS011;6281;49.038;8.372;2023-10-31T09:30:39;3.23;;;1.37;;
12433;SDS011;6281;49.038;8.372;2023-10-31T09:33:07;6.23;;;1.17;;
12433;SDS011;6281;49.038;8.372;2023-10-31T09:35:34;2.00;;;0.90;;
12433;SDS011;6281;49.038;8.372;2023-10-31T09:38:01;1.80;;;1.00;;
12433;SDS011;6281;49.038;8.372;2023-10-31T09:40:28;1.20;;;1.00;;
12433;SDS011;6281;49.038;8.372;2023-10-31T09:42:55;5.17;;;1.23;;
12433;SDS011;6281;49.038;8.372;2023-10-31T09:45:21;4.80;;;0.80;;
12433;SDS011;6281;49.038;8.372;2023-10-31T09:47:48;2.30;;;1.13;;
12433;SDS011;6281;49.038;8.372;2023-10-31T09:50:17;4.20;;;1.10;;
12433;SDS011;6281;49.038;8.372;2023-10-31T09:52:44;2.53;;;1.13;;
12433;SDS011;6281;49.038;8.372;2023-10-31T09:55:11;5.00;;;1.50;;
12433;SDS011;6281;49.038;8.372;2023-10-31T09:57:38;2.03;;;1.00;;
12433;SDS011;6281;49.038;8.372;2023-10-31T10:00:06;2.77;;;1.27;;
12433;SDS011;6281;49.038;8.372;2023-10-31T10:02:35;3.23;;;1.17;;
12433;SDS011;6281;49.038;8.372;2023-10-31T10:05:02;6.33;;;1.73;;
12433;SDS011;6281;49.038;8.372;2023-10-31T10:07:32;3.47;;;1.40;;
12433;SDS011;6281;49.038;8.372;2023-10-31T10:10:00;4.37;;;1.10;;
12433;SDS011;6281;49.038;8.372;2023-10-31T10:12:27;1.80;;;0.90;;
12433;SDS011;6281;49.038;8.372;2023-10-31T10:14:56;3.83;;;1.67;;
12433;SDS011;6281;49.038;8.372;2023-10-31T10:17:24;3.27;;;1.27;;
12433;SDS011;6281;49.038;8.372;2023-10-31T10:20:04;3.77;;;1.37;;
12433;SDS011;6281;49.038;8.372;2023-10-31T10:22:36;6.10;;;1.27;;
12433;SDS011;6281;49.038;8.372;2023-10-31T10:25:04;2.67;;;1.20;;
12433;SDS011;6281;49.038;8.372;2023-10-31T10:27:33;3.20;;;1.17;;
12433;SDS011;6281;49.038;8.372;2023-10-31T10:30:01;3.93;;;1.10;;
12433;SDS011;6281;49.038;8.372;2023-10-31T10:32:28;1.97;;;0.80;;
12433;SDS011;6281;49.038;8.372;2023-10-31T10:34:55;2.47;;;1.13;;
12433;SDS011;6281;49.038;8.372;2023-10-31T10:37:22;4.77;;;1.53;;
12433;SDS011;6281;49.038;8.372;2023-10-31T10:39:53;3.83;;;1.20;;
12433;SDS011;6281;49.038;8.372;2023-10-31T10:42:24;5.10;;;1.00;;
12433;SDS011;6281;49.038;8.372;2023-10-31T10:44:58;1.73;;;1.00;;
12433;SDS011;6281;49.038;8.372;2023-10-31T10:47:29;2.27;;;1.10;;
12433;SDS011;6281;49.038;8.372;2023-10-31T10:49:58;4.57;;;1.13;;
12433;SDS011;6281;49.038;8.372;2023-10-31T10:52:28;1.73;;;0.90;;
12433;SDS011;6281;49.038;8.372;2023-10-31T10:55:00;1.70;;;1.03;;
12433;SDS011;6281;49.038;8.372;2023-10-31T10:57:37;1.63;;;1.00;;
12433;SDS011;6281;49.038;8.372;2023-10-31T11:00:08;4.17;;;0.97;;
12433;SDS011;6281;49.038;8.372;2023-10-31T11:02:38;5.43;;;1.20;;
12433;SDS011;6281;49.038;8.372;2023-10-31T11:05:08;4.53;;;1.20;;
12433;SDS011;6281;49.038;8.372;2023-10-31T11:07:36;2.93;;;1.10;;
12433;SDS011;6281;49.038;8.372;2023-10-31T11:10:05;2.90;;;1.10;;
12433;SDS011;6281;49.038;8.372;2023-10-31T11:12:34;5.27;;;3.03;;
12433;SDS011;6281;49.038;8.372;2023-10-31T11:15:04;4.33;;;1.80;;
12433;SDS011;6281;49.038;8.372;2023-10-31T11:17:33;2.50;;;1.20;;
12433;SDS011;6281;49.038;8.372;2023-10-31T11:20:03;2.50;;;1.20;;
12433;SDS011;6281;49.038;8.372;2023-10-31T11:22:36;2.20;;;1.17;;
12433;SDS011;6281;49.038;8.372;2023-10-31T11:25:06;2.70;;;2.30;;
12433;SDS011;6281;49.038;8.372;2023-10-31T11:27:34;1.77;;;1.17;;
12433;SDS011;6281;49.038;8.372;2023-10-31T11:30:04;5.00;;;1.37;;
12433;SDS011;6281;49.038;8.372;2023-10-31T11:32:32;2.27;;;1.20;;
12433;SDS011;6281;49.038;8.372;2023-10-31T11:34:59;3.37;;;1.37;;
12433;SDS011;6281;49.038;8.372;2023-10-31T11:37:31;2.20;;;1.50;;
12433;SDS011;6281;49.038;8.372;2023-10-31T11:40:21;3.27;;;1.60;;
12433;SDS011;6281;49.038;8.372;2023-10-31T11:42:49;5.90;;;2.20;;
12433;SDS011;6281;49.038;8.372;2023-10-31T11:45:25;4.13;;;2.00;;
12433;SDS011;6281;49.038;8.372;2023-10-31T11:47:56;6.40;;;2.73;;
12433;SDS011;6281;49.038;8.372;2023-10-31T11:50:23;5.53;;;2.60;;
12433;SDS011;6281;49.038;8.372;2023-10-31T11:53:03;4.63;;;2.20;;
12433;SDS011;6281;49.038;8.372;2023-10-31T11:55:33;5.37;;;2.70;;
12433;SDS011;6281;49.038;8.372;2023-10-31T11:58:18;3.70;;;1.80;;
12433;SDS011;6281;49.038;8.372;2023-10-31T12:00:46;2.37;;;1.80;;
12433;SDS011;6281;49.038;8.372;2023-10-31T12:03:15;4.37;;;1.77;;
12433;SDS011;6281;49.038;8.372;2023-10-31T12:05:50;4.07;;;1.70;;
12433;SDS011;6281;49.038;8.372;2023-10-31T12:08:24;3.17;;;1.37;;
12433;SDS011;6281;49.038;8.372;2023-10-31T12:11:02;5.07;;;1.50;;
12433;SDS011;6281;49.038;8.372;2023-10-31T12:13:32;4.53;;;1.93;;
12433;SDS011;6281;49.038;8.372;2023-10-31T12:16:00;5.70;;;2.40;;
12433;SDS011;6281;49.038;8.372;2023-10-31T12:18:27;4.50;;;2.30;;
12433;SDS011;6281;49.038;8.372;2023-10-31T12:20:54;4.60;;;2.17;;
12433;SDS011;6281;49.038;8.372;2023-10-31T12:23:22;3.60;;;1.90;;
12433;SDS011;6281;49.038;8.372;2023-10-31T12:25:49;3.80;;;1.80;;
12433;SDS011;6281;49.038;8.372;2023-10-31T12:28:16;5.23;;;1.60;;
12433;SDS011;6281;49.038;8.372;2023-10-31T12:30:47;1.80;;;1.30;;
12433;SDS011;6281;49.038;8.372;2023-10-31T12:33:15;1.30;;;1.13;;
12433;SDS011;6281;49.038;8.372;2023-10-31T12:35:42;1.73;;;1.10;;
12433;SDS011;6281;49.038;8.372;2023-10-31T12:38:10;5.63;;;1.13;;
12433;SDS011;6281;49.038;8.372;2023-10-31T12:40:38;1.70;;;0.93;;
12433;SDS011;6281;49.038;8.372;2023-10-31T12:43:06;2.90;;;1.43;;
12433;SDS011;6281;49.038;8.372;2023-10-31T12:45:34;3.90;;;1.77;;
12433;SDS011;6281;49.038;8.372;2023-10-31T12:48:03;3.47;;;1.63;;
12433;SDS011;6281;49.038;8.372;2023-10-31T12:50:32;5.57;;;2.30;;
12433;SDS011;6281;49.038;8.372;2023-10-31T12:52:59;4.13;;;1.83;;
12433;SDS011;6281;49.038;8.372;2023-10-31T12:55:29;4.33;;;1.97;;
12433;SDS011;6281;49.038;8.372;2023-10-31T12:57:56;5.03;;;1.60;;
12433;SDS011;6281;49.038;8.372;2023-10-31T13:00:30;2.50;;;1.90;;
12433;SDS011;6281;49.038;8.372;2023-10-31T13:03:01;4.43;;;1.50;;
12433;SDS011;6281;49.038;8.372;2023-10-31T13:05:30;2.60;;;1.40;;
12433;SDS011;6281;49.038;8.372;2023-10-31T13:07:58;2.67;;;1.33;;
12433;SDS011;6281;49.038;8.372;2023-10-31T13:10:25;2.77;;;1.37;;
12433;SDS011;6281;49.038;8.372;2023-10-31T13:12:53;1.30;;;1.07;;
12433;SDS011;6281;49.038;8.372;2023-10-31T13:15:21;1.77;;;1.00;;
12433;SDS011;6281;49.038;8.372;2023-10-31T13:17:48;3.93;;;1.20;;
12433;SDS011;6281;49.038;8.372;2023-10-31T13:20:16;3.77;;;0.80;;
12433;SDS011;6281;49.038;8.372;2023-10-31T13:22:45;1.87;;;1.20;;
12433;SDS011;6281;49.038;8.372;2023-10-31T13:25:13;2.30;;;1.70;;
12433;SDS011;6281;49.038;8.372;2023-10-31T13:27:41;4.47;;;1.10;;
12433;SDS011;6281;49.038;8.372;2023-10-31T13:30:09;2.13;;;1.30;;
12433;SDS011;6281;49.038;8.372;2023-10-31T13:32:38;2.50;;;1.20;;
12433;SDS011;6281;49.038;8.372;2023-10-31T13:35:06;3.13;;;0.87;;
12433;SDS011;6281;49.038;8.372;2023-10-31T13:37:34;1.43;;;1.10;;
12433;SDS011;6281;49.038;8.372;2023-10-31T13:40:03;2.27;;;1.20;;
12433;SDS011;6281;49.038;8.372;2023-10-31T13:42:33;6.10;;;1.40;;
12433;SDS011;6281;49.038;8.372;2023-10-31T13:45:00;3.17;;;1.03;;
12433;SDS011;6281;49.038;8.372;2023-10-31T13:47:27;1.60;;;1.07;;
12433;SDS011;6281;49.038;8.372;2023-10-31T13:49:55;2.07;;;1.10;;
12433;SDS011;6281;49.038;8.372;2023-10-31T13:52:22;1.57;;;0.87;;
12433;SDS011;6281;49.038;8.372;2023-10-31T13:54:49;1.63;;;1.03;;
12433;SDS011;6281;49.038;8.372;2023-10-31T13:57:17;2.50;;;1.07;;
12433;SDS011;6281;49.038;8.372;2023-10-31T13:59:44;4.23;;;1.20;;
12433;SDS011;6281;49.038;8.372;2023-10-31T14:02:11;2.27;;;0.97;;
12433;SDS011;6281;49.038;8.372;2023-10-31T14:04:37;2.37;;;1.00;;
12433;SDS011;6281;49.038;8.372;2023-10-31T14:07:04;6.23;;;1.20;;
12433;SDS011;6281;49.038;8.372;2023-10-31T14:09:31;3.87;;;1.17;;
12433;SDS011;6281;49.038;8.372;2023-10-31T14:11:58;2.60;;;1.13;;
12433;SDS011;6281;49.038;8.372;2023-10-31T14:14:27;2.87;;;1.30;;
12433;SDS011;6281;49.038;8.372;2023-10-31T14:16:53;4.40;;;1.17;;
12433;SDS011;6281;49.038;8.372;2023-10-31T14:19:20;3.10;;;1.20;;
12433;SDS011;6281;49.038;8.372;2023-10-31T14:21:47;2.43;;;0.83;;
12433;SDS011;6281;49.038;8.372;2023-10-31T14:24:14;2.80;;;1.20;;
12433;SDS011;6281;49.038;8.372;2023-10-31T14:26:41;2.30;;;1.30;;
12433;SDS011;6281;49.038;8.372;2023-10-31T14:29:08;1.93;;;1.00;;
12433;SDS011;6281;49.038;8.372;2023-10-31T14:31:41;2.70;;;1.10;;
12433;SDS011;6281;49.038;8.372;2023-10-31T14:34:08;2.03;;;1.30;;
12433;SDS011;6281;49.038;8.372;2023-10-31T14:36:35;5.60;;;1.30;;
12433;SDS011;6281;49.038;8.372;2023-10-31T14:39:02;1.03;;;0.87;;
12433;SDS011;6281;49.038;8.372;2023-10-31T14:41:30;3.30;;;1.50;;
12433;SDS011;6281;49.038;8.372;2023-10-31T14:43:58;2.50;;;1.30;;
12433;SDS011;6281;49.038;8.372;2023-10-31T14:46:26;3.37;;;1.20;;
12433;SDS011;6281;49.038;8.372;2023-10-31T14:48:54;3.97;;;1.30;;
12433;SDS011;6281;49.038;8.372;2023-10-31T14:51:21;3.07;;;0.97;;
12433;SDS011;6281;49.038;8.372;2023-10-31T14:53:48;4.87;;;1.30;;
12433;SDS011;6281;49.038;8.372;2023-10-31T14:56:15;1.17;;;1.07;;
12433;SDS011;6281;49.038;8.372;2023-10-31T14:58:42;2.73;;;1.80;;
12433;SDS011;6281;49.038;8.372;2023-10-31T15:01:09;3.37;;;1.20;;
12433;SDS011;6281;49.038;8.372;2023-10-31T15:03:36;1.63;;;1.00;;